sensor_id;sensor_type;location;lat;lon;timestamp;pressure;altitude;pressure_sealevel;temperature;humidity
63281;BME280;49406;51.044;3.766;2022-08-01T00:00:17;101852.24;;;19.43;86.66
63281;BME280;49406;51.044;3.766;2022-08-01T00:02:52;101849.80;;;19.41;87.36
63281;BME280;49406;51.044;3.766;2022-08-01T00:05:26;101846.85;;;19.36;87.21
63281;BME280;49406;51.044;3.766;2022-08-01T00:08:01;101845.27;;;19.36;87.84
63281;BME280;49406;51.044;3.766;2022-08-01T00:10:35;101846.94;;;19.43;87.33
63281;BME280;49406;51.044;3.766;2022-08-01T00:13:10;101848.86;;;19.44;87.57
63281;BME280;49406;51.044;3.766;2022-08-01T00:15:44;101843.55;;;19.43;87.48
63281;BME280;49406;51.044;3.766;2022-08-01T00:18:19;101843.07;;;19.40;87.78
63281;BME280;49406;51.044;3.766;2022-08-01T00:30:51;101853.42;;;19.48;88.19
63281;BME280;49406;51.044;3.766;2022-08-01T00:33:26;101848.21;;;19.40;88.68
63281;BME280;49406;51.044;3.766;2022-08-01T00:36:01;101845.55;;;19.40;88.50
63281;BME280;49406;51.044;3.766;2022-08-01T00:38:35;101846.73;;;19.44;88.44
63281;BME280;49406;51.044;3.766;2022-08-01T00:51:14;101847.08;;;19.45;89.61
63281;BME280;49406;51.044;3.766;2022-08-01T00:53:50;101842.36;;;19.40;89.28
63281;BME280;49406;51.044;3.766;2022-08-01T00:56:25;101843.77;;;19.40;89.22
63281;BME280;49406;51.044;3.766;2022-08-01T00:59:00;101842.05;;;19.36;89.97
63281;BME280;49406;51.044;3.766;2022-08-01T01:01:37;101841.95;;;19.32;90.19
63281;BME280;49406;51.044;3.766;2022-08-01T01:04:11;101844.20;;;19.34;91.03
63281;BME280;49406;51.044;3.766;2022-08-01T01:06:51;101843.48;;;19.36;91.01
63281;BME280;49406;51.044;3.766;2022-08-01T01:09:38;101839.79;;;19.34;90.92
63281;BME280;49406;51.044;3.766;2022-08-01T01:12:29;101836.98;;;19.33;91.08
63281;BME280;49406;51.044;3.766;2022-08-01T01:15:08;101835.40;;;19.29;91.70
63281;BME280;49406;51.044;3.766;2022-08-01T01:17:48;101832.97;;;19.25;92.48
63281;BME280;49406;51.044;3.766;2022-08-01T01:20:30;101834.69;;;19.29;92.14
63281;BME280;49406;51.044;3.766;2022-08-01T01:23:21;101833.65;;;19.27;92.57
63281;BME280;49406;51.044;3.766;2022-08-01T01:26:15;101829.98;;;19.23;93.31
63281;BME280;49406;51.044;3.766;2022-08-01T01:28:59;101829.67;;;19.20;92.96
63281;BME280;49406;51.044;3.766;2022-08-01T01:31:40;101829.49;;;19.20;93.54
63281;BME280;49406;51.044;3.766;2022-08-01T01:34:18;101832.73;;;19.16;93.92
63281;BME280;49406;51.044;3.766;2022-08-01T01:36:55;101832.05;;;19.12;94.71
63281;BME280;49406;51.044;3.766;2022-08-01T01:39:31;101831.69;;;19.15;95.03
63281;BME280;49406;51.044;3.766;2022-08-01T01:42:07;101834.34;;;19.13;94.97
63281;BME280;49406;51.044;3.766;2022-08-01T01:44:42;101836.33;;;19.10;95.11
63281;BME280;49406;51.044;3.766;2022-08-01T01:47:18;101836.73;;;19.07;96.01
63281;BME280;49406;51.044;3.766;2022-08-01T01:49:55;101840.70;;;19.02;96.79
63281;BME280;49406;51.044;3.766;2022-08-01T01:52:31;101844.63;;;18.98;97.67
63281;BME280;49406;51.044;3.766;2022-08-01T01:55:08;101847.00;;;18.90;98.25
63281;BME280;49406;51.044;3.766;2022-08-01T01:57:43;101838.12;;;18.92;98.56
63281;BME280;49406;51.044;3.766;2022-08-01T02:00:18;101841.23;;;18.83;99.01
63281;BME280;49406;51.044;3.766;2022-08-01T02:02:55;101840.77;;;18.75;99.03
63281;BME280;49406;51.044;3.766;2022-08-01T02:05:31;101848.28;;;18.70;99.44
63281;BME280;49406;51.044;3.766;2022-08-01T02:08:08;101844.08;;;18.62;99.44
63281;BME280;49406;51.044;3.766;2022-08-01T02:10:45;101847.70;;;18.52;99.93
63281;BME280;49406;51.044;3.766;2022-08-01T02:13:36;101841.94;;;18.41;99.53
63281;BME280;49406;51.044;3.766;2022-08-01T02:16:11;101847.31;;;18.35;99.98
63281;BME280;49406;51.044;3.766;2022-08-01T02:18:47;101847.68;;;18.30;99.98
63281;BME280;49406;51.044;3.766;2022-08-01T02:21:26;101845.94;;;18.28;100.00
63281;BME280;49406;51.044;3.766;2022-08-01T02:24:06;101844.88;;;18.27;100.00
63281;BME280;49406;51.044;3.766;2022-08-01T02:26:46;101846.11;;;18.27;100.00
63281;BME280;49406;51.044;3.766;2022-08-01T02:29:27;101846.80;;;18.29;100.00
63281;BME280;49406;51.044;3.766;2022-08-01T02:32:07;101845.75;;;18.31;100.00
63281;BME280;49406;51.044;3.766;2022-08-01T02:34:47;101840.06;;;18.34;99.94
63281;BME280;49406;51.044;3.766;2022-08-01T02:37:21;101843.40;;;18.36;100.00
63281;BME280;49406;51.044;3.766;2022-08-01T02:39:58;101844.65;;;18.36;100.00
63281;BME280;49406;51.044;3.766;2022-08-01T02:42:36;101848.30;;;18.42;99.93
63281;BME280;49406;51.044;3.766;2022-08-01T02:45:13;101848.96;;;18.50;99.65
63281;BME280;49406;51.044;3.766;2022-08-01T02:47:49;101843.63;;;18.52;99.40
63281;BME280;49406;51.044;3.766;2022-08-01T02:50:25;101844.15;;;18.53;99.14
63281;BME280;49406;51.044;3.766;2022-08-01T02:53:01;101846.11;;;18.51;98.95
63281;BME280;49406;51.044;3.766;2022-08-01T02:55:39;101848.08;;;18.50;98.77
63281;BME280;49406;51.044;3.766;2022-08-01T02:58:16;101844.46;;;18.56;98.04
63281;BME280;49406;51.044;3.766;2022-08-01T03:00:52;101841.27;;;18.57;97.66
63281;BME280;49406;51.044;3.766;2022-08-01T03:03:27;101838.42;;;18.59;97.51
63281;BME280;49406;51.044;3.766;2022-08-01T03:06:03;101833.45;;;18.60;97.32
63281;BME280;49406;51.044;3.766;2022-08-01T03:08:38;101835.39;;;18.61;97.16
63281;BME280;49406;51.044;3.766;2022-08-01T03:11:14;101832.36;;;18.62;97.01
63281;BME280;49406;51.044;3.766;2022-08-01T03:13:49;101836.29;;;18.60;97.07
63281;BME280;49406;51.044;3.766;2022-08-01T03:16:25;101835.60;;;18.58;97.11
63281;BME280;49406;51.044;3.766;2022-08-01T03:19:02;101836.30;;;18.59;97.02
63281;BME280;49406;51.044;3.766;2022-08-01T03:21:39;101836.45;;;18.67;96.40
63281;BME280;49406;51.044;3.766;2022-08-01T03:24:15;101833.27;;;18.66;96.23
63281;BME280;49406;51.044;3.766;2022-08-01T03:26:51;101836.80;;;18.66;96.20
63281;BME280;49406;51.044;3.766;2022-08-01T03:29:27;101842.29;;;18.62;96.38
63281;BME280;49406;51.044;3.766;2022-08-01T03:32:03;101840.90;;;18.59;96.34
63281;BME280;49406;51.044;3.766;2022-08-01T03:34:38;101844.25;;;18.65;96.20
63281;BME280;49406;51.044;3.766;2022-08-01T03:37:17;101846.36;;;18.67;95.87
63281;BME280;49406;51.044;3.766;2022-08-01T03:39:58;101840.35;;;18.67;95.76
63281;BME280;49406;51.044;3.766;2022-08-01T03:42:37;101841.95;;;18.64;95.73
63281;BME280;49406;51.044;3.766;2022-08-01T03:45:19;101843.70;;;18.62;95.90
63281;BME280;49406;51.044;3.766;2022-08-01T03:47:59;101845.09;;;18.70;95.36
63281;BME280;49406;51.044;3.766;2022-08-01T03:50:34;101847.40;;;18.69;95.31
63281;BME280;49406;51.044;3.766;2022-08-01T03:53:11;101850.43;;;18.67;95.29
63281;BME280;49406;51.044;3.766;2022-08-01T03:55:47;101852.04;;;18.63;95.53
63281;BME280;49406;51.044;3.766;2022-08-01T03:58:22;101849.73;;;18.66;95.34
63281;BME280;49406;51.044;3.766;2022-08-01T04:00:58;101855.34;;;18.72;94.89
63281;BME280;49406;51.044;3.766;2022-08-01T04:03:33;101859.60;;;18.72;95.14
63281;BME280;49406;51.044;3.766;2022-08-01T04:06:08;101864.22;;;18.70;95.13
63281;BME280;49406;51.044;3.766;2022-08-01T04:08:43;101864.45;;;18.65;95.41
63281;BME280;49406;51.044;3.766;2022-08-01T04:11:29;101861.05;;;18.68;95.23
63281;BME280;49406;51.044;3.766;2022-08-01T04:14:03;101860.49;;;18.71;94.88
63281;BME280;49406;51.044;3.766;2022-08-01T04:16:38;101855.70;;;18.70;94.86
63281;BME280;49406;51.044;3.766;2022-08-01T04:19:12;101852.71;;;18.69;94.89
63281;BME280;49406;51.044;3.766;2022-08-01T04:21:47;101851.86;;;18.62;95.02
63281;BME280;49406;51.044;3.766;2022-08-01T04:24:23;101855.59;;;18.61;95.21
63281;BME280;49406;51.044;3.766;2022-08-01T04:27:00;101855.95;;;18.65;94.65
63281;BME280;49406;51.044;3.766;2022-08-01T04:29:35;101851.50;;;18.63;94.83
63281;BME280;49406;51.044;3.766;2022-08-01T04:32:12;101851.34;;;18.60;94.99
63281;BME280;49406;51.044;3.766;2022-08-01T04:34:49;101857.07;;;18.54;95.18
63281;BME280;49406;51.044;3.766;2022-08-01T04:37:25;101856.88;;;18.55;95.02
63281;BME280;49406;51.044;3.766;2022-08-01T04:40:03;101852.58;;;18.59;94.40
63281;BME280;49406;51.044;3.766;2022-08-01T04:42:38;101857.55;;;18.58;94.52
63281;BME280;49406;51.044;3.766;2022-08-01T04:45:13;101862.92;;;18.52;94.68
63281;BME280;49406;51.044;3.766;2022-08-01T04:47:48;101864.90;;;18.50;94.76
63281;BME280;49406;51.044;3.766;2022-08-01T04:50:23;101868.89;;;18.58;94.23
63281;BME280;49406;51.044;3.766;2022-08-01T04:52:58;101869.40;;;18.59;93.99
63281;BME280;49406;51.044;3.766;2022-08-01T04:55:36;101868.00;;;18.58;93.99
63281;BME280;49406;51.044;3.766;2022-08-01T04:58:11;101874.23;;;18.54;94.34
63281;BME280;49406;51.044;3.766;2022-08-01T05:00:47;101876.15;;;18.59;94.22
63281;BME280;49406;51.044;3.766;2022-08-01T05:03:21;101879.13;;;18.67;93.86
63281;BME280;49406;51.044;3.766;2022-08-01T05:05:56;101879.28;;;18.70;93.71
63281;BME280;49406;51.044;3.766;2022-08-01T05:08:30;101881.05;;;18.69;94.01
63281;BME280;49406;51.044;3.766;2022-08-01T05:11:05;101879.46;;;18.69;94.07
63281;BME280;49406;51.044;3.766;2022-08-01T05:13:39;101880.25;;;18.80;93.45
63281;BME280;49406;51.044;3.766;2022-08-01T05:16:13;101878.23;;;18.87;93.00
63281;BME280;49406;51.044;3.766;2022-08-01T05:18:48;101879.81;;;18.88;92.73
63281;BME280;49406;51.044;3.766;2022-08-01T05:21:22;101881.42;;;18.86;92.65
63281;BME280;49406;51.044;3.766;2022-08-01T05:23:57;101882.29;;;18.88;92.20
63281;BME280;49406;51.044;3.766;2022-08-01T05:26:31;101882.52;;;19.00;91.37
63281;BME280;49406;51.044;3.766;2022-08-01T05:29:06;101883.31;;;19.09;90.77
63281;BME280;49406;51.044;3.766;2022-08-01T05:31:40;101879.42;;;19.08;90.65
63281;BME280;49406;51.044;3.766;2022-08-01T05:34:15;101880.66;;;19.09;90.42
63281;BME280;49406;51.044;3.766;2022-08-01T05:36:50;101880.96;;;19.14;90.18
63281;BME280;49406;51.044;3.766;2022-08-01T05:39:24;101882.05;;;19.28;88.96
63281;BME280;49406;51.044;3.766;2022-08-01T05:41:58;101886.63;;;19.32;88.66
63281;BME280;49406;51.044;3.766;2022-08-01T05:44:33;101885.02;;;19.32;88.18
63281;BME280;49406;51.044;3.766;2022-08-01T05:47:07;101885.00;;;19.34;88.16
63281;BME280;49406;51.044;3.766;2022-08-01T05:49:42;101886.88;;;19.39;87.40
63281;BME280;49406;51.044;3.766;2022-08-01T05:52:16;101888.91;;;19.46;86.97
63281;BME280;49406;51.044;3.766;2022-08-01T05:54:51;101892.11;;;19.45;86.76
63281;BME280;49406;51.044;3.766;2022-08-01T05:57:25;101895.72;;;19.42;86.71
63281;BME280;49406;51.044;3.766;2022-08-01T05:59:59;101892.91;;;19.40;86.86
63281;BME280;49406;51.044;3.766;2022-08-01T06:02:34;101897.70;;;19.39;86.48
63281;BME280;49406;51.044;3.766;2022-08-01T06:05:10;101904.89;;;19.46;86.03
63281;BME280;49406;51.044;3.766;2022-08-01T06:07:44;101906.70;;;19.61;84.90
63281;BME280;49406;51.044;3.766;2022-08-01T06:10:19;101910.40;;;19.76;84.72
63281;BME280;49406;51.044;3.766;2022-08-01T06:12:54;101909.63;;;19.81;83.88
63281;BME280;49406;51.044;3.766;2022-08-01T06:15:29;101907.30;;;19.84;83.91
63281;BME280;49406;51.044;3.766;2022-08-01T06:18:03;101911.86;;;19.88;83.58
63281;BME280;49406;51.044;3.766;2022-08-01T06:20:38;101912.19;;;20.02;82.85
63281;BME280;49406;51.044;3.766;2022-08-01T06:23:12;101916.19;;;20.08;82.42
63281;BME280;49406;51.044;3.766;2022-08-01T06:25:51;101917.27;;;20.07;82.13
63281;BME280;49406;51.044;3.766;2022-08-01T06:28:26;101919.80;;;20.04;81.85
63281;BME280;49406;51.044;3.766;2022-08-01T06:31:00;101923.52;;;20.04;81.78
63281;BME280;49406;51.044;3.766;2022-08-01T06:33:35;101926.45;;;20.10;81.51
63281;BME280;49406;51.044;3.766;2022-08-01T06:36:09;101927.02;;;20.08;81.89
63281;BME280;49406;51.044;3.766;2022-08-01T06:38:44;101926.29;;;20.09;82.09
63281;BME280;49406;51.044;3.766;2022-08-01T06:41:18;101931.20;;;20.12;81.00
63281;BME280;49406;51.044;3.766;2022-08-01T06:43:52;101933.79;;;20.19;81.01
63281;BME280;49406;51.044;3.766;2022-08-01T06:46:27;101932.60;;;20.27;79.94
63281;BME280;49406;51.044;3.766;2022-08-01T06:49:01;101929.28;;;20.23;79.95
63281;BME280;49406;51.044;3.766;2022-08-01T06:51:36;101928.40;;;20.23;80.09
63281;BME280;49406;51.044;3.766;2022-08-01T06:54:10;101932.89;;;20.32;80.24
63281;BME280;49406;51.044;3.766;2022-08-01T06:56:45;101941.02;;;20.49;78.60
63281;BME280;49406;51.044;3.766;2022-08-01T06:59:19;101941.14;;;20.52;77.26
63281;BME280;49406;51.044;3.766;2022-08-01T07:01:53;101942.92;;;20.52;77.90
63281;BME280;49406;51.044;3.766;2022-08-01T07:04:28;101941.55;;;20.59;77.25
63281;BME280;49406;51.044;3.766;2022-08-01T07:07:03;101944.49;;;20.64;77.33
63281;BME280;49406;51.044;3.766;2022-08-01T07:09:37;101940.32;;;20.70;76.97
63281;BME280;49406;51.044;3.766;2022-08-01T07:12:14;101946.65;;;20.85;76.40
63281;BME280;49406;51.044;3.766;2022-08-01T07:14:48;101943.23;;;20.88;76.31
63281;BME280;49406;51.044;3.766;2022-08-01T07:17:23;101945.23;;;20.86;75.85
63281;BME280;49406;51.044;3.766;2022-08-01T07:19:57;101945.76;;;20.85;75.48
63281;BME280;49406;51.044;3.766;2022-08-01T07:22:31;101944.60;;;20.90;75.41
63281;BME280;49406;51.044;3.766;2022-08-01T07:25:07;101945.81;;;21.03;74.69
63281;BME280;49406;51.044;3.766;2022-08-01T07:27:42;101944.34;;;21.15;73.61
63281;BME280;49406;51.044;3.766;2022-08-01T07:30:17;101945.84;;;21.31;74.02
63281;BME280;49406;51.044;3.766;2022-08-01T07:32:52;101946.75;;;21.49;72.81
63281;BME280;49406;51.044;3.766;2022-08-01T07:35:26;101940.98;;;21.62;72.41
63281;BME280;49406;51.044;3.766;2022-08-01T07:38:00;101941.00;;;21.78;72.23
63281;BME280;49406;51.044;3.766;2022-08-01T07:40:35;101948.48;;;21.94;71.37
63281;BME280;49406;51.044;3.766;2022-08-01T07:43:09;101949.34;;;22.05;71.12
63281;BME280;49406;51.044;3.766;2022-08-01T07:45:44;101952.61;;;22.27;70.80
63281;BME280;49406;51.044;3.766;2022-08-01T07:48:18;101948.38;;;22.47;68.83
63281;BME280;49406;51.044;3.766;2022-08-01T07:50:56;101952.33;;;22.61;67.21
63281;BME280;49406;51.044;3.766;2022-08-01T07:53:31;101954.83;;;22.54;66.26
63281;BME280;49406;51.044;3.766;2022-08-01T07:56:06;101958.17;;;22.32;66.42
63281;BME280;49406;51.044;3.766;2022-08-01T07:58:41;101956.05;;;22.08;65.17
63281;BME280;49406;51.044;3.766;2022-08-01T08:01:15;101951.45;;;21.80;65.90
63281;BME280;49406;51.044;3.766;2022-08-01T08:03:49;101949.92;;;21.69;66.40
63281;BME280;49406;51.044;3.766;2022-08-01T08:06:24;101950.67;;;21.66;66.83
63281;BME280;49406;51.044;3.766;2022-08-01T08:08:58;101955.04;;;21.79;67.17
63281;BME280;49406;51.044;3.766;2022-08-01T08:11:33;101958.34;;;21.91;66.70
63281;BME280;49406;51.044;3.766;2022-08-01T08:14:07;101958.33;;;21.92;66.53
63281;BME280;49406;51.044;3.766;2022-08-01T08:16:42;101959.55;;;22.10;66.06
63281;BME280;49406;51.044;3.766;2022-08-01T08:19:17;101960.20;;;22.44;65.56
63281;BME280;49406;51.044;3.766;2022-08-01T08:21:51;101965.51;;;22.84;64.72
63281;BME280;49406;51.044;3.766;2022-08-01T08:24:25;101964.88;;;23.22;64.35
63281;BME280;49406;51.044;3.766;2022-08-01T08:27:01;101970.27;;;23.35;62.48
63281;BME280;49406;51.044;3.766;2022-08-01T08:29:36;101969.77;;;23.40;61.51
63281;BME280;49406;51.044;3.766;2022-08-01T08:32:11;101974.79;;;23.58;61.72
63281;BME280;49406;51.044;3.766;2022-08-01T08:34:45;101977.71;;;23.76;60.94
63281;BME280;49406;51.044;3.766;2022-08-01T08:37:20;101978.32;;;23.86;59.82
63281;BME280;49406;51.044;3.766;2022-08-01T08:39:54;101974.40;;;23.79;59.76
63281;BME280;49406;51.044;3.766;2022-08-01T08:42:29;101972.07;;;23.79;60.03
63281;BME280;49406;51.044;3.766;2022-08-01T08:45:04;101970.61;;;23.80;59.06
63281;BME280;49406;51.044;3.766;2022-08-01T08:47:40;101970.08;;;23.68;59.12
63281;BME280;49406;51.044;3.766;2022-08-01T08:50:16;101973.91;;;23.64;59.77
63281;BME280;49406;51.044;3.766;2022-08-01T08:52:51;101973.28;;;23.81;59.43
63281;BME280;49406;51.044;3.766;2022-08-01T08:55:28;101973.94;;;24.25;58.61
63281;BME280;49406;51.044;3.766;2022-08-01T08:58:03;101980.02;;;24.70;57.73
63281;BME280;49406;51.044;3.766;2022-08-01T09:00:40;101982.91;;;25.07;56.01
63281;BME280;49406;51.044;3.766;2022-08-01T09:03:14;101976.80;;;25.34;55.10
63281;BME280;49406;51.044;3.766;2022-08-01T09:05:49;101972.73;;;25.96;54.64
63281;BME280;49406;51.044;3.766;2022-08-01T09:08:24;101976.45;;;26.20;52.08
63281;BME280;49406;51.044;3.766;2022-08-01T09:10:58;101974.53;;;26.10;52.19
63281;BME280;49406;51.044;3.766;2022-08-01T09:13:33;101974.11;;;26.25;51.82
63281;BME280;49406;51.044;3.766;2022-08-01T09:16:07;101978.43;;;26.20;51.32
63281;BME280;49406;51.044;3.766;2022-08-01T09:18:42;101978.75;;;26.07;51.44
63281;BME280;49406;51.044;3.766;2022-08-01T09:21:19;101977.11;;;25.94;51.74
63281;BME280;49406;51.044;3.766;2022-08-01T09:23:55;101980.37;;;25.79;51.03
63281;BME280;49406;51.044;3.766;2022-08-01T09:26:33;101980.95;;;25.92;50.99
63281;BME280;49406;51.044;3.766;2022-08-01T09:29:16;101982.54;;;26.02;50.44
63281;BME280;49406;51.044;3.766;2022-08-01T09:31:52;101982.98;;;26.27;50.20
63281;BME280;49406;51.044;3.766;2022-08-01T09:34:29;101983.21;;;26.50;49.20
63281;BME280;49406;51.044;3.766;2022-08-01T09:37:04;101982.30;;;26.80;48.41
63281;BME280;49406;51.044;3.766;2022-08-01T09:39:39;101987.27;;;27.03;48.47
63281;BME280;49406;51.044;3.766;2022-08-01T09:42:23;101986.98;;;27.39;47.16
63281;BME280;49406;51.044;3.766;2022-08-01T09:44:57;101985.55;;;27.59;46.43
63281;BME280;49406;51.044;3.766;2022-08-01T09:47:39;101986.13;;;27.42;46.23
63281;BME280;49406;51.044;3.766;2022-08-01T09:50:13;101989.77;;;27.29;46.97
63281;BME280;49406;51.044;3.766;2022-08-01T09:52:54;101995.27;;;27.30;46.60
63281;BME280;49406;51.044;3.766;2022-08-01T09:55:30;101997.06;;;27.09;46.26
63281;BME280;49406;51.044;3.766;2022-08-01T09:58:05;102000.95;;;26.85;46.83
63281;BME280;49406;51.044;3.766;2022-08-01T10:00:40;102001.55;;;26.61;47.48
63281;BME280;49406;51.044;3.766;2022-08-01T10:03:22;101998.39;;;26.38;48.15
63281;BME280;49406;51.044;3.766;2022-08-01T10:05:57;101995.41;;;26.22;48.42
63281;BME280;49406;51.044;3.766;2022-08-01T10:08:47;101993.46;;;26.16;48.84
63281;BME280;49406;51.044;3.766;2022-08-01T10:11:21;101996.23;;;26.19;48.91
63281;BME280;49406;51.044;3.766;2022-08-01T10:13:57;101995.73;;;26.22;49.16
63281;BME280;49406;51.044;3.766;2022-08-01T10:16:35;101995.81;;;26.34;48.46
63281;BME280;49406;51.044;3.766;2022-08-01T10:19:10;101999.46;;;26.38;47.69
63281;BME280;49406;51.044;3.766;2022-08-01T10:21:44;101997.23;;;26.49;47.36
63281;BME280;49406;51.044;3.766;2022-08-01T10:24:23;101997.88;;;26.68;46.93
63281;BME280;49406;51.044;3.766;2022-08-01T10:27:01;102001.55;;;26.70;47.04
63281;BME280;49406;51.044;3.766;2022-08-01T10:29:46;101997.94;;;26.62;47.32
63281;BME280;49406;51.044;3.766;2022-08-01T10:32:22;101999.17;;;26.71;47.23
63281;BME280;49406;51.044;3.766;2022-08-01T10:34:57;101997.63;;;26.91;46.83
63281;BME280;49406;51.044;3.766;2022-08-01T10:37:34;101999.87;;;27.24;47.07
63281;BME280;49406;51.044;3.766;2022-08-01T10:40:10;101998.92;;;27.45;46.32
63281;BME280;49406;51.044;3.766;2022-08-01T10:42:46;101995.90;;;27.45;45.31
63281;BME280;49406;51.044;3.766;2022-08-01T10:45:21;101995.07;;;27.59;45.34
63281;BME280;49406;51.044;3.766;2022-08-01T10:47:59;101995.06;;;27.68;44.40
63281;BME280;49406;51.044;3.766;2022-08-01T10:50:40;101994.80;;;27.62;44.19
63281;BME280;49406;51.044;3.766;2022-08-01T10:53:17;101993.27;;;27.60;43.90
63281;BME280;49406;51.044;3.766;2022-08-01T10:56:02;101991.92;;;27.58;43.64
63281;BME280;49406;51.044;3.766;2022-08-01T10:58:38;101991.86;;;27.43;43.77
63281;BME280;49406;51.044;3.766;2022-08-01T11:01:19;101991.44;;;27.64;43.30
63281;BME280;49406;51.044;3.766;2022-08-01T11:04:08;101993.09;;;27.64;42.37
63281;BME280;49406;51.044;3.766;2022-08-01T11:07:00;101992.36;;;27.68;42.72
63281;BME280;49406;51.044;3.766;2022-08-01T11:09:44;101993.25;;;27.72;42.85
63281;BME280;49406;51.044;3.766;2022-08-01T11:12:20;101991.42;;;27.89;42.12
63281;BME280;49406;51.044;3.766;2022-08-01T11:15:24;101990.83;;;27.74;42.40
63281;BME280;49406;51.044;3.766;2022-08-01T11:18:29;101988.54;;;27.52;43.02
63281;BME280;49406;51.044;3.766;2022-08-01T11:20:59;101992.28;;;27.29;43.01
63281;BME280;49406;51.044;3.766;2022-08-01T11:23:48;101994.30;;;27.11;43.56
63281;BME280;49406;51.044;3.766;2022-08-01T11:26:26;101991.23;;;27.20;44.18
63281;BME280;49406;51.044;3.766;2022-08-01T11:29:18;101983.55;;;27.51;43.20
63281;BME280;49406;51.044;3.766;2022-08-01T11:31:52;101985.51;;;27.65;42.54
63281;BME280;49406;51.044;3.766;2022-08-01T11:34:55;101988.79;;;27.59;42.45
63281;BME280;49406;51.044;3.766;2022-08-01T11:37:30;101985.04;;;27.54;42.48
63281;BME280;49406;51.044;3.766;2022-08-01T11:40:19;101979.77;;;27.80;42.21
63281;BME280;49406;51.044;3.766;2022-08-01T11:45:55;101972.71;;;27.93;40.92
63281;BME280;49406;51.044;3.766;2022-08-01T11:48:30;101976.40;;;27.99;41.06
63281;BME280;49406;51.044;3.766;2022-08-01T11:51:04;101976.23;;;27.98;40.51
63281;BME280;49406;51.044;3.766;2022-08-01T11:53:50;101979.78;;;28.07;39.58
63281;BME280;49406;51.044;3.766;2022-08-01T11:56:25;101979.21;;;28.19;40.20
63281;BME280;49406;51.044;3.766;2022-08-01T11:59:01;101979.41;;;28.49;39.26
63281;BME280;49406;51.044;3.766;2022-08-01T12:01:36;101980.27;;;28.57;39.15
63281;BME280;49406;51.044;3.766;2022-08-01T12:04:10;101982.48;;;28.67;38.41
63281;BME280;49406;51.044;3.766;2022-08-01T12:06:45;101979.27;;;28.88;37.83
63281;BME280;49406;51.044;3.766;2022-08-01T12:09:23;101978.32;;;28.85;35.83
63281;BME280;49406;51.044;3.766;2022-08-01T12:11:57;101979.79;;;28.92;36.51
63281;BME280;49406;51.044;3.766;2022-08-01T12:14:32;101979.17;;;29.18;35.92
63281;BME280;49406;51.044;3.766;2022-08-01T12:17:06;101985.09;;;29.22;35.23
63281;BME280;49406;51.044;3.766;2022-08-01T12:19:41;101979.55;;;29.18;35.22
63281;BME280;49406;51.044;3.766;2022-08-01T12:22:16;101978.02;;;29.05;35.38
63281;BME280;49406;51.044;3.766;2022-08-01T12:24:50;101977.91;;;29.42;35.79
63281;BME280;49406;51.044;3.766;2022-08-01T12:27:29;101969.02;;;29.90;34.71
63281;BME280;49406;51.044;3.766;2022-08-01T12:30:03;101967.44;;;29.96;34.37
63281;BME280;49406;51.044;3.766;2022-08-01T12:32:40;101963.92;;;29.91;33.98
63281;BME280;49406;51.044;3.766;2022-08-01T12:35:17;101965.78;;;29.97;33.41
63281;BME280;49406;51.044;3.766;2022-08-01T12:37:54;101968.30;;;30.03;33.91
63281;BME280;49406;51.044;3.766;2022-08-01T12:40:31;101973.63;;;29.98;33.92
63281;BME280;49406;51.044;3.766;2022-08-01T12:43:07;101967.31;;;29.88;34.34
63281;BME280;49406;51.044;3.766;2022-08-01T12:45:43;101968.73;;;29.96;33.23
63281;BME280;49406;51.044;3.766;2022-08-01T12:48:18;101975.88;;;29.57;33.24
63281;BME280;49406;51.044;3.766;2022-08-01T12:50:53;101975.11;;;29.10;34.14
63281;BME280;49406;51.044;3.766;2022-08-01T12:53:34;101967.05;;;29.01;34.68
63281;BME280;49406;51.044;3.766;2022-08-01T12:56:09;101965.84;;;29.12;34.91
63281;BME280;49406;51.044;3.766;2022-08-01T12:58:44;101966.81;;;28.92;34.27
63281;BME280;49406;51.044;3.766;2022-08-01T13:01:26;101961.05;;;28.67;34.99
63281;BME280;49406;51.044;3.766;2022-08-01T13:04:02;101959.39;;;28.50;35.34
63281;BME280;49406;51.044;3.766;2022-08-01T13:06:38;101955.05;;;28.35;35.82
63281;BME280;49406;51.044;3.766;2022-08-01T13:09:12;101956.55;;;28.60;36.22
63281;BME280;49406;51.044;3.766;2022-08-01T13:11:46;101952.45;;;28.73;36.28
63281;BME280;49406;51.044;3.766;2022-08-01T13:14:29;101956.96;;;28.41;36.26
63281;BME280;49406;51.044;3.766;2022-08-01T13:17:03;101957.69;;;27.99;36.50
63281;BME280;49406;51.044;3.766;2022-08-01T13:19:44;101950.87;;;27.79;36.66
63281;BME280;49406;51.044;3.766;2022-08-01T13:22:20;101956.63;;;27.99;36.70
63281;BME280;49406;51.044;3.766;2022-08-01T13:25:16;101959.84;;;28.26;36.87
63281;BME280;49406;51.044;3.766;2022-08-01T13:27:50;101959.50;;;28.25;35.63
63281;BME280;49406;51.044;3.766;2022-08-01T13:30:57;101956.80;;;27.95;35.54
63281;BME280;49406;51.044;3.766;2022-08-01T13:33:42;101957.28;;;27.84;36.07
63281;BME280;49406;51.044;3.766;2022-08-01T13:36:17;101949.39;;;27.84;36.50
63281;BME280;49406;51.044;3.766;2022-08-01T13:38:52;101950.91;;;27.98;36.03
63281;BME280;49406;51.044;3.766;2022-08-01T13:41:44;101952.80;;;27.88;35.21
63281;BME280;49406;51.044;3.766;2022-08-01T13:44:19;101950.73;;;27.82;34.83
63281;BME280;49406;51.044;3.766;2022-08-01T13:46:54;101952.48;;;27.88;35.27
63281;BME280;49406;51.044;3.766;2022-08-01T13:49:29;101953.27;;;27.81;35.11
63281;BME280;49406;51.044;3.766;2022-08-01T13:52:04;101956.34;;;28.01;34.17
63281;BME280;49406;51.044;3.766;2022-08-01T13:54:39;101958.63;;;28.17;33.89
63281;BME280;49406;51.044;3.766;2022-08-01T13:57:13;101958.83;;;28.32;34.01
63281;BME280;49406;51.044;3.766;2022-08-01T13:59:49;101956.63;;;28.40;33.36
63281;BME280;49406;51.044;3.766;2022-08-01T14:02:24;101952.05;;;28.34;33.07